createdAt,value
2023-05-14T00:00:45.131Z,10.30
2023-05-14T00:03:11.964Z,10.20
2023-05-14T00:05:38.704Z,10.20
2023-05-14T00:08:05.490Z,10.20
2023-05-14T00:10:32.213Z,10.20
2023-05-14T00:12:58.812Z,10.20
2023-05-14T00:15:25.366Z,10.20
2023-05-14T00:17:51.916Z,10.10
2023-05-14T00:20:18.895Z,10.10
2023-05-14T00:22:45.507Z,10.10
2023-05-14T00:25:12.035Z,10.10
2023-05-14T00:27:38.642Z,10.10
2023-05-14T00:30:06.858Z,10.00
2023-05-14T00:32:33.897Z,9.90
2023-05-14T00:35:00.798Z,9.90
2023-05-14T00:37:27.379Z,9.90
2023-05-14T00:39:53.881Z,10.00
2023-05-14T00:42:20.483Z,10.00
2023-05-14T00:44:46.980Z,10.00
2023-05-14T00:47:13.629Z,9.90
2023-05-14T00:49:41.061Z,9.90
2023-05-14T00:52:08.601Z,9.90
2023-05-14T00:54:36.427Z,10.00
2023-05-14T00:57:04.703Z,10.00
2023-05-14T00:59:31.851Z,9.90
2023-05-14T01:01:58.657Z,9.80
2023-05-14T01:04:25.291Z,9.70
2023-05-14T01:07:02.088Z,9.80
2023-05-14T01:09:44.203Z,9.90
2023-05-14T01:12:51.797Z,9.90
2023-05-14T01:15:27.753Z,10.00
2023-05-14T01:17:59.895Z,10.00
2023-05-14T01:20:26.916Z,9.80
2023-05-14T01:22:53.466Z,9.70
2023-05-14T01:25:20.421Z,9.70
2023-05-14T01:27:49.738Z,9.50
2023-05-14T01:30:36.176Z,9.20
2023-05-14T01:33:06.760Z,9.00
2023-05-14T01:35:33.631Z,9.10
2023-05-14T01:38:02.076Z,9.10
2023-05-14T01:40:29.712Z,9.10
2023-05-14T01:42:56.688Z,9.00
2023-05-14T01:45:24.127Z,8.90
2023-05-14T01:47:51.637Z,9.00
2023-05-14T01:50:18.346Z,9.00
2023-05-14T01:52:44.935Z,9.10
2023-05-14T01:55:11.506Z,9.20
2023-05-14T01:57:38.059Z,9.20
2023-05-14T02:00:05.553Z,9.10
2023-05-14T02:02:32.196Z,9.10
2023-05-14T02:04:58.785Z,9.10
2023-05-14T02:07:25.430Z,9.10
2023-05-14T02:09:52.141Z,9.00
2023-05-14T02:12:18.673Z,9.10
2023-05-14T02:14:45.708Z,9.00
2023-05-14T02:17:15.672Z,8.90
2023-05-14T02:19:42.195Z,8.90
2023-05-14T02:22:08.708Z,8.90
2023-05-14T02:24:35.325Z,9.00
2023-05-14T02:27:01.976Z,9.00
2023-05-14T02:29:28.505Z,8.90
2023-05-14T02:31:55.930Z,8.80
2023-05-14T02:34:22.842Z,8.80
2023-05-14T02:36:49.617Z,8.80
2023-05-14T02:39:16.274Z,8.70
2023-05-14T02:41:42.842Z,8.60
2023-05-14T02:44:09.351Z,8.80
2023-05-14T02:46:35.952Z,8.80
2023-05-14T02:49:03.029Z,8.80
2023-05-14T02:51:29.607Z,8.60
2023-05-14T02:53:56.153Z,8.50
2023-05-14T02:56:22.689Z,8.50
2023-05-14T02:58:49.181Z,8.70
2023-05-14T03:01:16.430Z,9.00
2023-05-14T03:03:43.477Z,9.20
2023-05-14T03:06:10.747Z,9.30
2023-05-14T03:08:37.303Z,9.10
2023-05-14T03:11:04.003Z,9.00
2023-05-14T03:13:30.932Z,9.00
2023-05-14T03:15:57.451Z,8.90
2023-05-14T03:18:24.115Z,8.80
2023-05-14T03:20:50.763Z,8.80
2023-05-14T03:23:17.356Z,8.80
2023-05-14T03:25:43.857Z,8.70
2023-05-14T03:28:10.438Z,8.60
2023-05-14T03:30:37.069Z,8.50
2023-05-14T03:33:04.096Z,8.50
2023-05-14T03:35:30.581Z,8.50
2023-05-14T03:37:59.080Z,8.40
2023-05-14T03:40:26.041Z,8.50
2023-05-14T03:42:52.688Z,8.50
2023-05-14T03:45:19.334Z,8.50
2023-05-14T03:47:45.854Z,8.50
2023-05-14T03:50:12.383Z,8.60
2023-05-14T03:52:38.982Z,8.60
2023-05-14T03:55:06.165Z,8.50
2023-05-14T03:57:32.791Z,8.50
2023-05-14T03:59:59.312Z,8.40
2023-05-14T04:02:25.945Z,8.30
2023-05-14T04:04:52.679Z,8.30
2023-05-14T04:07:19.347Z,8.20
2023-05-14T04:09:45.857Z,8.10
2023-05-14T04:12:12.409Z,8.00
2023-05-14T04:14:38.940Z,8.20
2023-05-14T04:17:05.457Z,8.20
2023-05-14T04:19:31.970Z,8.40
2023-05-14T04:21:58.496Z,8.50
2023-05-14T04:24:25.077Z,8.50
2023-05-14T04:26:51.612Z,8.50
2023-05-14T04:29:18.143Z,8.60
2023-05-14T04:31:44.792Z,8.50
2023-05-14T04:34:11.420Z,8.60
2023-05-14T04:36:37.958Z,8.60
2023-05-14T04:39:05.856Z,8.60
2023-05-14T04:41:32.447Z,8.70
2023-05-14T04:44:01.714Z,8.80
2023-05-14T04:46:28.645Z,8.80
2023-05-14T04:48:56.339Z,8.90
2023-05-14T04:51:23.249Z,9.00
2023-05-14T04:53:50.104Z,9.00
2023-05-14T04:56:16.631Z,9.10
2023-05-14T04:58:43.134Z,9.20
2023-05-14T05:01:09.895Z,9.20
2023-05-14T05:03:36.485Z,9.30
2023-05-14T05:06:03.349Z,9.40
2023-05-14T05:08:29.868Z,9.50
2023-05-14T05:10:56.379Z,9.50
2023-05-14T05:13:22.960Z,9.50
2023-05-14T05:15:49.504Z,9.60
2023-05-14T05:18:16.062Z,9.70
2023-05-14T05:20:42.566Z,9.70
2023-05-14T05:23:09.071Z,9.70
2023-05-14T05:25:36.151Z,9.80
2023-05-14T05:28:02.800Z,9.80
2023-05-14T05:30:30.108Z,9.90
2023-05-14T05:32:57.389Z,10.00
2023-05-14T05:35:24.033Z,10.10
2023-05-14T05:37:50.889Z,10.20
2023-05-14T05:40:17.619Z,10.30
2023-05-14T05:42:44.154Z,10.50
2023-05-14T05:45:10.989Z,10.60
2023-05-14T05:47:37.525Z,10.70
2023-05-14T05:50:04.611Z,10.80
2023-05-14T05:52:31.183Z,10.90
2023-05-14T05:54:57.732Z,10.90
2023-05-14T05:57:26.291Z,11.00
2023-05-14T05:59:53.123Z,11.20
2023-05-14T06:02:20.297Z,11.20
2023-05-14T06:04:46.883Z,11.40
2023-05-14T06:07:13.429Z,11.50
2023-05-14T06:09:39.934Z,11.60
2023-05-14T06:12:06.781Z,11.70
2023-05-14T06:14:33.446Z,11.80
2023-05-14T06:17:00.280Z,11.90
2023-05-14T06:19:26.967Z,11.90
2023-05-14T06:21:53.466Z,11.90
2023-05-14T06:24:20.279Z,12.10
2023-05-14T06:26:48.643Z,12.20
2023-05-14T06:29:15.219Z,12.40
2023-05-14T06:31:41.894Z,12.50
2023-05-14T06:34:09.043Z,12.60
2023-05-14T06:36:35.573Z,12.70
2023-05-14T06:39:02.097Z,12.80
2023-05-14T06:41:29.425Z,12.90
2023-05-14T06:43:55.937Z,13.00
2023-05-14T06:46:22.486Z,13.30
2023-05-14T06:48:49.124Z,13.80
2023-05-14T06:51:15.814Z,14.30
2023-05-14T06:53:42.354Z,14.70
2023-05-14T06:56:08.974Z,14.80
2023-05-14T06:58:35.516Z,15.40
2023-05-14T07:01:02.134Z,15.90
2023-05-14T07:03:29.032Z,16.00
2023-05-14T07:05:55.624Z,16.30
2023-05-14T07:08:22.201Z,16.70
2023-05-14T07:10:48.984Z,16.50
2023-05-14T07:13:15.534Z,16.70
2023-05-14T07:15:42.028Z,16.90
2023-05-14T07:18:08.645Z,17.70
2023-05-14T07:20:35.378Z,17.80
2023-05-14T07:23:01.951Z,18.20
2023-05-14T07:25:28.469Z,18.00
2023-05-14T07:27:55.626Z,18.00
2023-05-14T07:30:22.314Z,18.10
2023-05-14T07:32:49.073Z,18.10
2023-05-14T07:35:15.799Z,18.10
2023-05-14T07:37:42.857Z,18.20
2023-05-14T07:40:09.698Z,18.80
2023-05-14T07:42:37.356Z,18.20
2023-05-14T07:45:05.130Z,18.10
2023-05-14T07:47:31.935Z,17.80
2023-05-14T07:49:58.943Z,17.90
2023-05-14T07:52:25.659Z,17.80
2023-05-14T07:54:52.351Z,17.90
2023-05-14T07:57:19.867Z,17.50
2023-05-14T07:59:47.561Z,17.60
2023-05-14T08:02:15.767Z,18.10
2023-05-14T08:04:42.404Z,18.10
2023-05-14T08:07:09.245Z,18.60
2023-05-14T08:09:35.938Z,18.20
2023-05-14T08:12:02.604Z,18.10
2023-05-14T08:14:29.128Z,17.90
2023-05-14T08:16:55.871Z,18.70
2023-05-14T08:19:23.840Z,19.00
2023-05-14T08:21:51.306Z,18.80
2023-05-14T08:24:18.579Z,18.40
2023-05-14T08:26:45.077Z,19.00
2023-05-14T08:29:12.984Z,19.00
2023-05-14T08:31:41.236Z,19.50
2023-05-14T08:34:07.789Z,19.70
2023-05-14T08:36:34.345Z,19.70
2023-05-14T08:39:01.120Z,20.20
2023-05-14T08:41:27.648Z,20.30
2023-05-14T08:44:18.888Z,20.60
2023-05-14T08:46:45.764Z,20.10
2023-05-14T08:49:40.206Z,20.10
2023-05-14T08:52:08.573Z,20.10
2023-05-14T08:54:35.404Z,20.90
2023-05-14T08:57:04.411Z,21.20
2023-05-14T08:59:31.353Z,21.30
2023-05-14T09:02:01.457Z,21.00
2023-05-14T09:04:29.474Z,21.80
2023-05-14T09:06:57.223Z,22.30
2023-05-14T09:09:23.998Z,22.80
2023-05-14T09:11:52.667Z,22.70
2023-05-14T09:14:20.259Z,22.40
2023-05-14T09:16:48.647Z,22.30
2023-05-14T09:19:18.776Z,22.70
2023-05-14T09:21:46.779Z,23.10
2023-05-14T09:24:24.175Z,22.50
2023-05-14T09:26:56.095Z,23.10
2023-05-14T09:29:26.164Z,23.20
2023-05-14T09:31:54.995Z,23.80
2023-05-14T09:34:26.228Z,23.80
2023-05-14T09:37:04.159Z,23.60
2023-05-14T09:39:31.747Z,24.50
2023-05-14T09:41:58.718Z,24.80
2023-05-14T09:44:25.961Z,24.00
2023-05-14T09:46:53.685Z,23.20
2023-05-14T09:49:20.857Z,23.10
2023-05-14T09:51:49.106Z,23.00
2023-05-14T09:54:15.861Z,22.90
2023-05-14T09:56:43.503Z,23.30
2023-05-14T09:59:10.197Z,23.50
2023-05-14T10:01:38.289Z,24.50
2023-05-14T10:04:08.036Z,24.70
2023-05-14T10:06:37.749Z,25.30
2023-05-14T10:09:09.768Z,25.20
2023-05-14T10:11:38.529Z,25.30
2023-05-14T10:14:26.141Z,25.50
2023-05-14T10:16:54.029Z,25.40
2023-05-14T10:19:24.128Z,25.40
2023-05-14T10:21:56.816Z,25.70
2023-05-14T10:24:24.577Z,25.70
2023-05-14T10:26:51.523Z,25.50
2023-05-14T10:29:18.080Z,25.80
2023-05-14T10:31:56.040Z,25.80
2023-05-14T10:34:33.417Z,26.40
2023-05-14T10:37:02.431Z,26.10
2023-05-14T10:39:44.760Z,25.40
2023-05-14T10:42:17.136Z,25.50
2023-05-14T10:44:58.716Z,24.90
2023-05-14T10:47:32.719Z,25.10
2023-05-14T10:50:01.882Z,24.90
2023-05-14T10:52:29.299Z,24.40
2023-05-14T10:55:03.362Z,25.20
2023-05-14T10:57:31.856Z,25.60
2023-05-14T11:00:00.124Z,26.40
2023-05-14T11:02:28.224Z,26.70
2023-05-14T11:04:59.133Z,27.00
2023-05-14T11:07:30.157Z,27.20
2023-05-14T11:10:14.210Z,27.40
2023-05-14T11:12:43.171Z,27.40
2023-05-14T11:15:21.179Z,26.70
2023-05-14T11:17:49.601Z,27.30
2023-05-14T11:20:17.322Z,27.10
2023-05-14T11:22:45.292Z,27.50
2023-05-14T11:25:14.816Z,28.40
2023-05-14T11:27:44.518Z,28.50
2023-05-14T11:30:21.638Z,28.90
2023-05-14T11:32:49.738Z,28.00
2023-05-14T11:35:17.939Z,28.50
2023-05-14T11:37:51.983Z,28.60
2023-05-14T11:40:18.990Z,28.70
2023-05-14T11:42:45.842Z,28.90
2023-05-14T11:45:13.835Z,28.70
2023-05-14T11:47:43.414Z,28.80
2023-05-14T11:50:11.000Z,28.10
2023-05-14T11:52:41.374Z,27.30
2023-05-14T11:55:12.612Z,27.20
2023-05-14T11:57:39.550Z,27.40
2023-05-14T12:00:09.047Z,27.90
2023-05-14T12:02:37.276Z,28.20
2023-05-14T12:05:07.068Z,28.70
2023-05-14T12:07:33.579Z,28.80
2023-05-14T12:10:03.222Z,27.60
2023-05-14T12:12:35.554Z,28.50
2023-05-14T12:15:02.190Z,28.70
2023-05-14T12:17:28.765Z,28.70
2023-05-14T12:19:57.238Z,28.20
2023-05-14T12:22:23.808Z,29.00
2023-05-14T12:24:55.221Z,29.50
2023-05-14T12:27:24.261Z,29.90
2023-05-14T12:32:26.520Z,29.00
2023-05-14T12:34:53.033Z,29.10
2023-05-14T12:37:19.764Z,29.00
2023-05-14T12:39:46.306Z,28.40
2023-05-14T12:42:14.572Z,28.20
2023-05-14T12:44:41.083Z,28.50
2023-05-14T12:47:08.422Z,28.50
2023-05-14T12:49:35.102Z,28.00
2023-05-14T12:52:17.343Z,27.80
2023-05-14T12:54:48.264Z,27.60
2023-05-14T12:57:14.867Z,27.40
2023-05-14T12:59:41.420Z,27.50
2023-05-14T13:02:08.151Z,27.90
2023-05-14T13:04:34.789Z,28.20
2023-05-14T13:07:01.484Z,28.30
2023-05-14T13:09:28.235Z,28.60
2023-05-14T13:11:54.776Z,28.90
2023-05-14T13:14:21.329Z,29.10
2023-05-14T13:16:47.918Z,28.70
2023-05-14T13:19:14.561Z,28.70
2023-05-14T13:21:41.216Z,28.50
2023-05-14T13:24:09.907Z,27.80
2023-05-14T13:26:37.536Z,28.00
2023-05-14T13:29:04.339Z,27.50
2023-05-14T13:31:31.065Z,25.90
2023-05-14T13:33:59.245Z,24.80
2023-05-14T13:36:25.851Z,23.90
2023-05-14T13:38:52.462Z,22.50
2023-05-14T13:41:19.085Z,21.90
2023-05-14T13:43:45.600Z,21.50
2023-05-14T13:46:12.128Z,21.40
2023-05-14T13:48:38.795Z,21.50
2023-05-14T13:51:05.351Z,21.90
2023-05-14T13:53:31.905Z,22.20
2023-05-14T13:56:00.749Z,22.70
2023-05-14T13:58:27.993Z,23.60
2023-05-14T14:00:54.669Z,24.30
2023-05-14T14:03:21.360Z,24.60
2023-05-14T14:05:48.010Z,24.30
2023-05-14T14:08:23.452Z,24.20
2023-05-14T14:10:51.234Z,24.20
2023-05-14T14:13:17.774Z,24.00
2023-05-14T14:15:44.511Z,24.10
2023-05-14T14:18:11.183Z,24.00
2023-05-14T14:20:38.062Z,24.20
2023-05-14T14:23:04.560Z,24.30
2023-05-14T14:25:31.319Z,24.20
2023-05-14T14:27:57.984Z,24.10
2023-05-14T14:30:24.835Z,23.70
2023-05-14T14:32:51.619Z,23.80
2023-05-14T14:35:19.582Z,23.40
2023-05-14T14:37:50.397Z,23.30
2023-05-14T14:40:17.582Z,23.30
2023-05-14T14:42:44.493Z,23.30
2023-05-14T14:45:11.924Z,23.50
2023-05-14T14:47:38.709Z,24.00
2023-05-14T14:50:06.336Z,24.10
2023-05-14T14:52:33.077Z,24.50
2023-05-14T14:54:59.680Z,24.80
2023-05-14T14:57:26.770Z,25.40
2023-05-14T14:59:53.342Z,25.60
2023-05-14T15:02:20.132Z,25.70
2023-05-14T15:04:46.949Z,25.90
2023-05-14T15:07:15.778Z,26.20
2023-05-14T15:09:42.309Z,26.20
2023-05-14T15:12:10.048Z,26.00
2023-05-14T15:14:36.616Z,25.80
2023-05-14T15:17:03.311Z,25.70
2023-05-14T15:19:31.668Z,25.70
2023-05-14T15:21:58.483Z,25.80
2023-05-14T15:24:26.013Z,25.80
2023-05-14T15:26:53.703Z,25.60
2023-05-14T15:29:20.621Z,25.80
2023-05-14T15:31:47.407Z,25.80
2023-05-14T15:34:14.061Z,25.90
2023-05-14T15:36:40.818Z,25.80
2023-05-14T15:39:10.300Z,25.50
2023-05-14T15:41:37.114Z,25.60
2023-05-14T15:44:03.859Z,25.50
2023-05-14T15:46:30.760Z,25.50
2023-05-14T15:48:57.967Z,25.60
2023-05-14T15:51:24.598Z,25.60
2023-05-14T15:53:53.958Z,25.70
2023-05-14T15:56:21.820Z,25.90
2023-05-14T15:58:48.929Z,25.90
2023-05-14T16:01:15.667Z,26.00
2023-05-14T16:03:42.554Z,26.00
2023-05-14T16:06:09.439Z,26.10
2023-05-14T16:08:36.023Z,26.20
2023-05-14T16:11:02.638Z,26.10
2023-05-14T16:13:29.190Z,26.30
2023-05-14T16:15:55.881Z,26.30
2023-05-14T16:18:22.419Z,26.20
2023-05-14T16:20:48.965Z,26.20
2023-05-14T16:23:15.566Z,25.90
2023-05-14T16:25:42.200Z,25.60
2023-05-14T16:28:08.758Z,25.40
2023-05-14T16:30:35.436Z,25.30
2023-05-14T16:33:02.064Z,25.40
2023-05-14T16:35:28.830Z,25.50
2023-05-14T16:37:56.031Z,25.50
2023-05-14T16:40:23.469Z,25.30
2023-05-14T16:42:51.071Z,25.40
2023-05-14T16:45:17.873Z,25.80
2023-05-14T16:47:44.674Z,25.70
2023-05-14T16:50:11.547Z,25.60
2023-05-14T16:52:38.042Z,25.70
2023-05-14T16:55:05.046Z,25.90
2023-05-14T16:57:31.744Z,25.80
2023-05-14T16:59:58.285Z,25.80
2023-05-14T17:02:24.936Z,25.80
2023-05-14T17:04:51.592Z,25.50
2023-05-14T17:07:18.260Z,25.20
2023-05-14T17:09:44.795Z,24.90
2023-05-14T17:12:13.422Z,24.60
2023-05-14T17:14:39.998Z,24.70
2023-05-14T17:17:06.540Z,24.70
2023-05-14T17:19:33.077Z,24.60
2023-05-14T17:21:59.601Z,24.40
2023-05-14T17:24:26.114Z,24.40
2023-05-14T17:26:52.661Z,24.40
2023-05-14T17:29:19.358Z,24.10
2023-05-14T17:31:46.056Z,23.90
2023-05-14T17:34:12.586Z,23.70
2023-05-14T17:36:39.445Z,23.60
2023-05-14T17:39:06.091Z,23.30
2023-05-14T17:41:32.635Z,23.10
2023-05-14T17:43:59.293Z,22.80
2023-05-14T17:46:25.980Z,22.40
2023-05-14T17:48:52.494Z,22.00
2023-05-14T17:51:18.974Z,21.80
2023-05-14T17:53:46.095Z,21.50
2023-05-14T17:56:12.714Z,21.20
2023-05-14T17:58:39.271Z,20.90
2023-05-14T18:01:05.944Z,20.80
2023-05-14T18:03:32.642Z,20.60
2023-05-14T18:05:59.506Z,20.30
2023-05-14T18:08:26.057Z,20.20
2023-05-14T18:10:52.602Z,19.90
2023-05-14T18:13:19.136Z,19.70
2023-05-14T18:15:45.673Z,19.70
2023-05-14T18:18:12.498Z,19.40
2023-05-14T18:20:39.003Z,19.20
2023-05-14T18:23:05.549Z,19.10
2023-05-14T18:25:32.097Z,18.90
2023-05-14T18:27:59.807Z,18.70
2023-05-14T18:30:26.347Z,18.70
2023-05-14T18:32:53.008Z,18.50
2023-05-14T18:35:20.186Z,18.40
2023-05-14T18:37:47.435Z,18.30
2023-05-14T18:40:18.477Z,18.10
2023-05-14T18:42:45.581Z,18.00
2023-05-14T18:45:12.274Z,17.80
2023-05-14T18:47:39.833Z,17.70
2023-05-14T18:50:07.801Z,17.50
2023-05-14T18:52:34.405Z,17.40
2023-05-14T18:55:01.013Z,17.30
2023-05-14T18:57:29.227Z,17.20
2023-05-14T18:59:55.786Z,17.20
2023-05-14T19:02:22.432Z,17.00
2023-05-14T19:04:52.810Z,16.90
2023-05-14T19:07:20.786Z,16.80
2023-05-14T19:09:47.696Z,16.70
2023-05-14T19:12:15.891Z,16.60
2023-05-14T19:14:42.416Z,16.50
2023-05-14T19:17:09.358Z,16.40
2023-05-14T19:19:36.393Z,16.30
2023-05-14T19:22:02.980Z,16.30
2023-05-14T19:24:30.094Z,16.20
2023-05-14T19:26:56.626Z,16.10
2023-05-14T19:29:23.242Z,16.10
2023-05-14T19:31:49.945Z,16.10
2023-05-14T19:34:16.775Z,16.00
2023-05-14T19:36:43.398Z,15.90
2023-05-14T19:39:10.692Z,15.90
2023-05-14T19:41:37.274Z,15.90
2023-05-14T19:44:03.847Z,16.00
2023-05-14T19:46:30.488Z,16.00
2023-05-14T19:48:57.014Z,15.90
2023-05-14T19:51:23.527Z,15.90
2023-05-14T19:53:50.111Z,15.90
2023-05-14T19:56:16.767Z,15.80
2023-05-14T19:58:44.111Z,15.80
2023-05-14T20:01:11.811Z,15.80
2023-05-14T20:03:38.528Z,15.70
2023-05-14T20:06:05.462Z,15.50
2023-05-14T20:08:32.001Z,15.40
2023-05-14T20:10:58.558Z,15.30
2023-05-14T20:13:25.538Z,15.20
2023-05-14T20:15:52.300Z,15.20
2023-05-14T20:18:18.878Z,15.10
2023-05-14T20:20:45.412Z,15.20
2023-05-14T20:23:11.930Z,15.20
2023-05-14T20:25:38.629Z,15.20
2023-05-14T20:28:05.232Z,15.10
2023-05-14T20:30:32.056Z,14.90
2023-05-14T20:32:58.709Z,14.90
2023-05-14T20:35:25.932Z,14.80
2023-05-14T20:37:52.992Z,14.60
2023-05-14T20:40:19.587Z,14.50
2023-05-14T20:42:46.158Z,14.40
2023-05-14T20:45:12.788Z,14.40
2023-05-14T20:47:40.353Z,14.30
2023-05-14T20:50:07.596Z,14.30
2023-05-14T20:52:34.135Z,14.20
2023-05-14T20:55:02.045Z,14.20
2023-05-14T20:57:29.000Z,14.20
2023-05-14T20:59:55.539Z,14.10
2023-05-14T21:02:22.236Z,14.10
2023-05-14T21:04:48.985Z,14.00
2023-05-14T21:07:15.859Z,13.90
2023-05-14T21:09:43.508Z,13.90
2023-05-14T21:12:10.181Z,13.80
2023-05-14T21:14:36.751Z,13.90
2023-05-14T21:17:03.840Z,13.90
2023-05-14T21:19:30.354Z,13.90
2023-05-14T21:21:56.946Z,14.00
2023-05-14T21:24:23.479Z,14.00
2023-05-14T21:26:51.690Z,14.00
2023-05-14T21:29:20.005Z,13.90
2023-05-14T21:31:48.298Z,13.90
2023-05-14T21:34:14.861Z,13.80
2023-05-14T21:36:41.489Z,13.80
2023-05-14T21:39:08.124Z,13.80
2023-05-14T21:41:34.612Z,13.80
2023-05-14T21:44:01.208Z,13.80
2023-05-14T21:46:28.812Z,13.70
2023-05-14T21:48:56.460Z,13.70
2023-05-14T21:51:23.135Z,13.60
2023-05-14T21:53:49.864Z,13.60
2023-05-14T21:56:16.465Z,13.50
2023-05-14T21:58:44.044Z,13.40
2023-05-14T22:01:11.426Z,13.40
2023-05-14T22:03:38.465Z,13.40
2023-05-14T22:06:05.626Z,13.30
2023-05-14T22:08:32.185Z,13.20
2023-05-14T22:10:58.955Z,13.20
2023-05-14T22:13:25.544Z,13.20
2023-05-14T22:16:01.579Z,13.10
2023-05-14T22:18:38.683Z,13.00
2023-05-14T22:21:05.441Z,12.90
2023-05-14T22:23:31.969Z,13.00
2023-05-14T22:25:58.570Z,12.80
2023-05-14T22:28:25.168Z,12.80
2023-05-14T22:30:51.735Z,12.70
2023-05-14T22:33:19.187Z,12.60
2023-05-14T22:35:45.963Z,12.50
2023-05-14T22:38:13.803Z,12.50
2023-05-14T22:40:40.424Z,12.40
2023-05-14T22:43:06.957Z,12.40
2023-05-14T22:45:33.619Z,12.50
2023-05-14T22:48:00.242Z,12.50
2023-05-14T22:50:26.840Z,12.50
2023-05-14T22:52:53.383Z,12.40
2023-05-14T22:55:19.910Z,12.30
2023-05-14T22:57:46.627Z,12.40
2023-05-14T23:00:13.752Z,12.30
2023-05-14T23:02:40.738Z,12.20
2023-05-14T23:05:08.628Z,12.20
2023-05-14T23:07:35.434Z,12.20
2023-05-14T23:10:02.211Z,12.20
2023-05-14T23:12:29.152Z,12.20
2023-05-14T23:14:56.163Z,12.20
2023-05-14T23:17:22.778Z,12.10
2023-05-14T23:19:49.435Z,12.00
2023-05-14T23:22:16.093Z,12.00
2023-05-14T23:24:42.644Z,11.90
2023-05-14T23:27:11.021Z,11.70
2023-05-14T23:29:37.520Z,11.70
2023-05-14T23:32:04.251Z,11.70
2023-05-14T23:34:30.892Z,11.70
2023-05-14T23:36:57.424Z,11.70
2023-05-14T23:39:24.041Z,11.70
2023-05-14T23:41:50.806Z,11.70
2023-05-14T23:44:17.394Z,11.80
2023-05-14T23:46:44.149Z,11.80
2023-05-14T23:49:10.911Z,11.90
2023-05-14T23:51:37.644Z,11.90
2023-05-14T23:54:04.530Z,11.90
2023-05-14T23:56:31.051Z,12.00
2023-05-14T23:58:57.641Z,11.90
